Time;durP1;ratioP1;P1;durP2;ratioP2;P2;SDS_P1;SDS_P2;PMS_P1;PMS_P2;Temp;Humidity;BMP_temperature;BMP_pressure;BME280_temperature;BME280_humidity;BME280_pressure;Samples;Min_cycle;Max_cycle;Signal;HPM_P1;HPM_P2
2023/04/25 00:02:20;;;;;;;2.40;1.80;;;8.00;97.30;;;;;;4956915;28;20815;-84
2023/04/25 00:04:46;;;;;;;1.53;1.50;;;8.10;97.30;;;;;;4954080;28;20215;-85
2023/04/25 00:07:12;;;;;;;5.63;1.90;;;8.10;97.30;;;;;;4962275;28;20205;-83
2023/04/25 00:09:37;;;;;;;1.23;1.23;;;8.20;97.30;;;;;;4956511;28;20556;-85
2023/04/25 00:12:03;;;;;;;1.67;1.57;;;8.20;97.30;;;;;;4965085;28;20461;-84
2023/04/25 00:14:30;;;;;;;2.57;2.37;;;8.20;97.30;;;;;;4952004;29;20182;-85
2023/04/25 00:16:55;;;;;;;1.50;1.40;;;8.20;97.30;;;;;;4962799;28;20671;-84
2023/04/25 00:19:21;;;;;;;1.83;1.60;;;8.20;97.30;;;;;;4960017;28;20439;-84
2023/04/25 00:21:46;;;;;;;1.40;1.30;;;8.30;97.30;;;;;;4953231;29;20586;-84
2023/04/25 00:24:13;;;;;;;3.00;2.80;;;8.30;97.30;;;;;;4953456;29;20246;-85
2023/04/25 00:26:38;;;;;;;1.47;1.37;;;8.30;97.30;;;;;;4948940;28;20183;-84
2023/04/25 00:29:04;;;;;;;1.53;1.43;;;8.30;97.30;;;;;;4949144;28;20446;-85
2023/04/25 00:31:30;;;;;;;1.97;1.60;;;8.30;97.30;;;;;;4952365;28;20301;-84
2023/04/25 00:33:55;;;;;;;1.77;1.43;;;8.30;97.30;;;;;;4954172;28;20660;-84
2023/04/25 00:36:21;;;;;;;2.63;2.37;;;8.30;97.30;;;;;;4954239;28;20415;-84
2023/04/25 00:38:47;;;;;;;2.40;1.50;;;8.30;97.30;;;;;;4960421;28;20191;-84
2023/04/25 00:41:13;;;;;;;8.83;1.70;;;8.30;97.30;;;;;;4956614;28;20742;-84
2023/04/25 00:43:39;;;;;;;2.50;2.13;;;8.30;97.30;;;;;;4952991;29;20418;-85
2023/04/25 00:46:05;;;;;;;1.13;1.10;;;8.30;97.30;;;;;;4960701;28;20186;-85
2023/04/25 00:48:31;;;;;;;7.90;2.50;;;8.30;97.30;;;;;;4959023;28;20444;-85
2023/04/25 00:50:58;;;;;;;1.73;1.70;;;8.30;97.30;;;;;;4958188;28;20222;-84
2023/04/25 00:53:25;;;;;;;1.93;1.83;;;8.20;97.30;;;;;;4953151;29;20551;-85
2023/04/25 00:55:51;;;;;;;1.47;1.37;;;8.10;97.30;;;;;;4963680;28;20513;-85
2023/04/25 00:58:18;;;;;;;3.03;2.60;;;8.10;97.30;;;;;;4965230;28;20457;-85
2023/04/25 01:00:48;;;;;;;1.63;1.37;;;8.00;97.30;;;;;;4954731;28;21007;-84
2023/04/25 01:03:16;;;;;;;2.10;1.40;;;8.00;97.30;;;;;;4957865;28;20426;-85
2023/04/25 01:05:42;;;;;;;2.83;2.67;;;7.90;97.30;;;;;;4958014;28;21024;-85
2023/04/25 01:08:08;;;;;;;4.10;2.13;;;7.90;97.30;;;;;;4959964;28;20433;-85
2023/04/25 01:10:33;;;;;;;3.37;3.17;;;7.90;97.30;;;;;;4957564;28;20423;-85
2023/04/25 01:12:59;;;;;;;6.03;2.87;;;7.80;97.30;;;;;;4956354;28;20427;-85
2023/04/25 01:15:25;;;;;;;1.70;1.60;;;7.70;97.30;;;;;;4955923;28;20190;-85
2023/04/25 01:17:50;;;;;;;4.00;2.90;;;7.70;97.30;;;;;;4968024;28;20182;-84
2023/04/25 01:20:16;;;;;;;3.00;2.10;;;7.70;97.30;;;;;;4965164;28;20196;-85
2023/04/25 01:22:42;;;;;;;3.03;1.77;;;7.60;97.30;;;;;;4964037;28;20707;-85
2023/04/25 01:25:09;;;;;;;2.57;2.37;;;7.50;97.30;;;;;;4961621;28;20194;-84
2023/04/25 01:27:36;;;;;;;2.00;1.90;;;7.50;97.30;;;;;;4960875;28;20438;-84
2023/04/25 01:30:03;;;;;;;2.43;1.87;;;7.50;97.30;;;;;;4956068;29;20423;-84
2023/04/25 01:32:31;;;;;;;2.57;2.37;;;7.40;97.30;;;;;;4952431;28;20481;-84
2023/04/25 01:34:56;;;;;;;1.47;1.37;;;7.40;97.30;;;;;;4957018;28;20430;-85
2023/04/25 01:37:22;;;;;;;3.07;2.80;;;7.40;97.30;;;;;;4965159;28;20502;-85
2023/04/25 01:39:48;;;;;;;4.40;2.17;;;7.30;97.30;;;;;;4963608;28;20273;-85
2023/04/25 01:42:14;;;;;;;5.17;3.67;;;7.30;97.30;;;;;;4961231;28;20226;-85
2023/04/25 01:44:40;;;;;;;2.50;1.87;;;7.30;97.30;;;;;;4951760;28;20799;-85
2023/04/25 01:47:06;;;;;;;1.47;1.37;;;7.20;97.30;;;;;;4963477;28;20525;-85
2023/04/25 01:49:31;;;;;;;2.50;2.30;;;7.20;97.30;;;;;;4961644;28;20722;-85
2023/04/25 01:51:56;;;;;;;2.13;1.97;;;7.20;97.30;;;;;;4957750;28;20211;-84
2023/04/25 01:54:22;;;;;;;2.93;2.20;;;7.10;97.30;;;;;;4966791;28;20210;-85
2023/04/25 01:56:51;;;;;;;5.53;2.33;;;7.10;97.30;;;;;;4953376;28;20221;-85
2023/04/25 01:59:19;;;;;;;1.60;1.50;;;7.10;97.30;;;;;;4957895;28;20183;-85
2023/04/25 02:01:45;;;;;;;2.63;1.80;;;7.00;97.30;;;;;;4957616;28;20442;-85
2023/04/25 02:04:10;;;;;;;1.50;1.40;;;7.00;97.30;;;;;;4958452;28;20417;-85
2023/04/25 02:06:36;;;;;;;2.80;1.80;;;7.00;97.30;;;;;;4951579;28;20198;-85
2023/04/25 02:09:01;;;;;;;1.30;1.20;;;6.90;97.30;;;;;;4965347;28;20193;-86
2023/04/25 02:11:27;;;;;;;1.80;1.70;;;6.90;97.30;;;;;;4961299;28;20769;-85
2023/04/25 02:13:52;;;;;;;1.83;1.67;;;6.90;97.30;;;;;;4970148;28;20186;-84
2023/04/25 02:16:18;;;;;;;2.50;2.30;;;6.80;97.30;;;;;;4951539;28;20194;-85
2023/04/25 02:18:45;;;;;;;1.37;1.27;;;6.80;97.30;;;;;;4965925;28;20225;-85
2023/04/25 02:21:11;;;;;;;3.03;2.10;;;6.80;97.30;;;;;;4971191;28;20790;-85
2023/04/25 02:23:37;;;;;;;5.37;3.10;;;6.80;97.30;;;;;;4961098;28;20422;-86
2023/04/25 02:26:02;;;;;;;1.33;1.23;;;6.80;97.30;;;;;;4957765;28;20431;-85
2023/04/25 02:28:28;;;;;;;2.27;2.10;;;6.70;97.30;;;;;;4956351;28;20553;-84
2023/04/25 02:30:53;;;;;;;1.37;1.30;;;6.70;97.30;;;;;;4955319;28;20234;-85
2023/04/25 02:33:20;;;;;;;2.07;1.93;;;6.70;97.30;;;;;;4959403;28;20200;-85
2023/04/25 02:35:46;;;;;;;1.60;1.50;;;6.70;97.30;;;;;;4955546;28;20187;-85
2023/04/25 02:38:12;;;;;;;3.23;3.03;;;6.60;97.30;;;;;;4963953;28;20425;-86
2023/04/25 02:40:37;;;;;;;2.23;2.13;;;6.60;97.30;;;;;;4953249;28;20265;-85
2023/04/25 02:43:03;;;;;;;3.83;2.10;;;6.60;97.30;;;;;;4968087;28;20596;-85
2023/04/25 02:45:28;;;;;;;2.93;2.10;;;6.50;97.30;;;;;;4954245;29;20187;-84
2023/04/25 02:47:54;;;;;;;1.73;1.57;;;6.50;97.30;;;;;;4967984;28;20193;-85
2023/04/25 02:50:19;;;;;;;4.00;2.23;;;6.50;97.30;;;;;;4959720;28;20167;-85
2023/04/25 02:52:45;;;;;;;1.57;1.47;;;6.50;97.30;;;;;;4954056;28;20207;-85
2023/04/25 02:55:12;;;;;;;2.17;1.63;;;6.40;97.30;;;;;;4956894;28;20203;-85
2023/04/25 02:57:38;;;;;;;1.90;1.43;;;6.40;97.30;;;;;;4961307;28;20420;-86
2023/04/25 03:00:05;;;;;;;2.30;2.10;;;6.40;97.30;;;;;;4959080;28;20510;-85
2023/04/25 03:02:30;;;;;;;5.60;2.83;;;6.40;97.30;;;;;;4954761;28;20205;-86
2023/04/25 03:04:56;;;;;;;4.33;2.30;;;6.40;97.30;;;;;;4955999;28;20427;-85
2023/04/25 03:07:21;;;;;;;1.43;1.33;;;6.40;97.30;;;;;;4958150;28;20185;-85
2023/04/25 03:09:47;;;;;;;2.27;2.07;;;6.30;97.30;;;;;;4951668;28;20183;-85
2023/04/25 03:12:12;;;;;;;1.63;1.53;;;6.30;97.30;;;;;;4960136;28;20354;-84
2023/04/25 03:14:37;;;;;;;5.63;3.53;;;6.30;97.30;;;;;;4956857;28;20556;-85
2023/04/25 03:17:03;;;;;;;1.50;1.40;;;6.30;97.30;;;;;;4955120;28;20274;-85
2023/04/25 03:19:28;;;;;;;2.40;2.03;;;6.30;97.30;;;;;;4963738;28;20192;-85
2023/04/25 03:21:54;;;;;;;3.83;2.97;;;;;;;;;;4960361;28;20246;-84
2023/04/25 03:24:20;;;;;;;1.93;1.83;;;6.20;97.30;;;;;;4959367;28;20186;-85
2023/04/25 03:26:46;;;;;;;2.73;1.73;;;6.10;97.30;;;;;;4955868;28;20427;-85
2023/04/25 03:29:11;;;;;;;2.00;1.93;;;6.10;97.30;;;;;;4960257;28;20869;-85
2023/04/25 03:31:37;;;;;;;2.63;2.43;;;6.10;97.30;;;;;;4967887;28;20293;-86
2023/04/25 03:34:02;;;;;;;2.70;2.50;;;6.00;97.30;;;;;;4962839;28;20637;-85
2023/04/25 03:36:28;;;;;;;3.30;2.27;;;6.00;97.30;;;;;;4960675;28;20187;-85
2023/04/25 03:38:53;;;;;;;2.40;2.10;;;6.00;97.30;;;;;;4950798;29;20247;-86
2023/04/25 03:41:19;;;;;;;5.63;1.70;;;5.90;97.30;;;;;;4965001;28;20234;-85
2023/04/25 03:43:44;;;;;;;2.60;2.43;;;5.90;97.30;;;;;;4964063;28;20185;-86
2023/04/25 03:46:10;;;;;;;2.20;2.00;;;5.80;97.30;;;;;;4955661;28;20271;-85
2023/04/25 03:48:35;;;;;;;9.93;2.30;;;5.80;97.30;;;;;;4954012;28;20556;-85
2023/04/25 03:51:01;;;;;;;2.30;1.80;;;5.80;97.30;;;;;;4967138;28;20289;-86
2023/04/25 03:53:26;;;;;;;4.10;2.40;;;5.80;97.30;;;;;;4961920;28;20176;-85
2023/04/25 03:55:52;;;;;;;1.80;1.70;;;5.80;97.30;;;;;;4953672;29;20183;-85
2023/04/25 03:58:17;;;;;;;5.17;1.90;;;5.80;97.30;;;;;;4953515;29;20194;-86
2023/04/25 04:00:43;;;;;;;1.90;1.80;;;5.70;97.30;;;;;;4955030;28;20321;-85
2023/04/25 04:03:08;;;;;;;4.60;2.40;;;5.70;97.30;;;;;;4956572;28;20190;-85
2023/04/25 04:05:34;;;;;;;10.40;3.23;;;5.70;97.30;;;;;;4962474;28;20179;-85
2023/04/25 04:07:59;;;;;;;10.00;1.97;;;5.70;97.30;;;;;;4955567;28;20183;-85
2023/04/25 04:10:26;;;;;;;7.63;3.00;;;5.70;97.30;;;;;;4961022;28;20269;-85
2023/04/25 04:12:51;;;;;;;1.90;1.80;;;5.70;97.30;;;;;;4965888;28;20199;-86
2023/04/25 04:15:17;;;;;;;1.67;1.63;;;5.70;97.30;;;;;;4953793;29;20419;-85
2023/04/25 04:17:42;;;;;;;2.73;1.73;;;5.70;97.30;;;;;;4955399;28;20182;-85
2023/04/25 04:20:08;;;;;;;1.87;1.77;;;5.70;97.30;;;;;;4968493;28;20179;-85
2023/04/25 04:22:34;;;;;;;2.30;2.10;;;5.70;97.30;;;;;;4953298;29;20199;-85
2023/04/25 04:25:00;;;;;;;5.53;2.50;;;5.80;97.30;;;;;;4959401;28;20431;-85
2023/04/25 04:27:26;;;;;;;1.50;1.40;;;5.80;97.30;;;;;;4961162;28;20427;-85
2023/04/25 04:29:53;;;;;;;9.83;2.00;;;5.80;97.30;;;;;;4953221;28;20194;-85
2023/04/25 04:32:18;;;;;;;2.70;2.50;;;5.80;97.30;;;;;;4959329;28;20474;-85
2023/04/25 04:34:44;;;;;;;6.47;1.97;;;5.90;97.30;;;;;;4964686;28;20421;-85
2023/04/25 04:37:10;;;;;;;1.67;1.57;;;5.90;97.30;;;;;;4961897;28;20180;-85
2023/04/25 04:39:36;;;;;;;2.03;1.43;;;5.90;97.30;;;;;;4958602;28;20784;-85
2023/04/25 04:42:01;;;;;;;3.00;2.00;;;5.90;97.30;;;;;;4955153;28;20238;-85
2023/04/25 04:44:28;;;;;;;10.33;1.63;;;5.90;97.30;;;;;;4958516;28;20410;-85
2023/04/25 04:46:54;;;;;;;2.67;2.47;;;5.90;97.30;;;;;;4957807;28;20198;-85
2023/04/25 04:49:19;;;;;;;1.40;1.30;;;5.90;97.30;;;;;;4964582;28;20813;-85
2023/04/25 04:51:46;;;;;;;6.43;1.80;;;;;;;;;;4951927;28;20215;-86
2023/04/25 04:54:12;;;;;;;6.87;3.30;;;6.00;97.30;;;;;;4960591;28;20603;-85
2023/04/25 04:56:38;;;;;;;7.30;3.23;;;6.00;97.30;;;;;;4955995;28;20423;-85
2023/04/25 04:59:03;;;;;;;1.30;1.20;;;6.10;97.30;;;;;;4960115;28;20208;-85
2023/04/25 05:01:30;;;;;;;10.83;4.63;;;6.10;97.30;;;;;;4960849;28;20203;-85
2023/04/25 05:04:00;;;;;;;1.27;1.17;;;6.20;97.30;;;;;;4960518;28;20190;-85
2023/04/25 05:06:29;;;;;;;5.43;2.83;;;6.30;97.30;;;;;;4950126;28;20445;-86
2023/04/25 05:08:55;;;;;;;2.23;2.07;;;6.40;97.30;;;;;;4960934;28;20524;-86
2023/04/25 05:11:22;;;;;;;2.17;2.00;;;6.40;97.30;;;;;;4959109;28;20478;-86
2023/04/25 05:13:49;;;;;;;1.43;1.40;;;6.50;97.30;;;;;;4955882;28;20419;-86
2023/04/25 05:16:14;;;;;;;2.47;2.20;;;6.50;97.30;;;;;;4967398;28;20942;-86
2023/04/25 05:18:40;;;;;;;1.97;1.87;;;6.50;97.30;;;;;;4955735;28;20414;-86
2023/04/25 05:21:06;;;;;;;1.90;1.83;;;6.60;97.30;;;;;;4955454;28;20246;-85
2023/04/25 05:23:32;;;;;;;3.73;3.00;;;6.70;97.30;;;;;;4952818;28;20768;-86
2023/04/25 05:25:58;;;;;;;1.10;1.00;;;6.80;97.30;;;;;;4951906;28;20711;-86
2023/04/25 05:28:24;;;;;;;6.37;2.00;;;6.80;97.30;;;;;;4953553;28;20437;-86
2023/04/25 05:30:50;;;;;;;4.33;2.87;;;6.90;97.30;;;;;;4950692;28;20209;-85
2023/04/25 05:33:16;;;;;;;2.90;1.93;;;6.90;97.30;;;;;;4950656;28;20176;-86
2023/04/25 05:35:42;;;;;;;5.23;2.57;;;7.00;97.30;;;;;;4951435;28;20441;-85
2023/04/25 05:38:07;;;;;;;3.03;2.83;;;7.10;97.30;;;;;;4959193;28;20794;-85
2023/04/25 05:40:33;;;;;;;2.30;2.03;;;7.10;97.30;;;;;;4950756;28;20430;-86
2023/04/25 05:42:58;;;;;;;6.93;3.77;;;7.20;97.30;;;;;;4965933;28;20324;-86
2023/04/25 05:45:24;;;;;;;3.90;1.83;;;7.20;97.30;;;;;;4957956;28;20175;-88
2023/04/25 05:47:51;;;;;;;2.77;2.57;;;;;;;;;;4950227;29;20645;-88
2023/04/25 05:50:16;;;;;;;3.27;2.00;;;7.30;97.30;;;;;;4959250;28;20290;-87
2023/04/25 05:52:42;;;;;;;16.07;2.97;;;7.40;97.30;;;;;;4961685;28;20548;-86
2023/04/25 05:55:08;;;;;;;2.63;2.20;;;7.40;97.30;;;;;;4957282;28;20188;-86
2023/04/25 05:57:33;;;;;;;2.83;2.13;;;7.50;97.30;;;;;;4949774;28;20376;-87
2023/04/25 05:59:59;;;;;;;2.50;2.30;;;7.50;97.30;;;;;;4948224;29;20422;-86
2023/04/25 06:02:25;;;;;;;2.53;2.33;;;7.60;97.30;;;;;;4962023;28;20198;-87
2023/04/25 06:04:51;;;;;;;3.13;2.53;;;7.60;97.30;;;;;;4958789;28;20439;-88
2023/04/25 06:07:17;;;;;;;3.20;2.47;;;7.70;97.30;;;;;;4949933;28;20426;-87
2023/04/25 06:09:43;;;;;;;3.07;1.90;;;7.70;97.30;;;;;;4949106;29;20218;-87
2023/04/25 06:12:08;;;;;;;3.07;2.13;;;7.80;97.30;;;;;;4960775;28;20469;-88
2023/04/25 06:14:34;;;;;;;3.63;3.43;;;7.80;97.30;;;;;;4964959;28;20580;-86
2023/04/25 06:17:06;;;;;;;5.00;2.10;;;7.90;97.30;;;;;;4952532;28;20194;-88
2023/04/25 06:19:37;;;;;;;1.97;1.77;;;8.00;97.30;;;;;;4956605;28;20562;-86
2023/04/25 06:22:03;;;;;;;5.03;2.53;;;8.10;97.30;;;;;;4955762;28;20442;-87
2023/04/25 06:24:28;;;;;;;2.67;2.53;;;8.20;97.30;;;;;;4943711;28;20430;-87
2023/04/25 06:26:54;;;;;;;2.63;1.90;;;8.30;97.30;;;;;;4957013;28;20186;-87
2023/04/25 06:29:20;;;;;;;3.97;2.77;;;8.20;97.30;;;;;;4953076;29;20183;-87
2023/04/25 06:31:45;;;;;;;13.90;3.27;;;8.20;97.30;;;;;;4952534;28;20219;-87
2023/04/25 06:34:11;;;;;;;3.20;2.47;;;8.20;97.30;;;;;;4956810;28;20569;-87
2023/04/25 06:36:36;;;;;;;2.80;2.60;;;8.30;97.30;;;;;;4951754;28;20202;-89
2023/04/25 06:39:02;;;;;;;3.23;2.63;;;8.30;97.30;;;;;;4960694;28;20214;-87
2023/04/25 06:41:27;;;;;;;2.40;2.20;;;8.40;97.30;;;;;;4947874;28;20325;-88
2023/04/25 06:43:53;;;;;;;1.37;1.27;;;8.40;97.30;;;;;;4957439;28;20192;-88
2023/04/25 06:46:19;;;;;;;4.73;2.33;;;8.40;97.30;;;;;;4966646;28;20196;-87
2023/04/25 06:48:44;;;;;;;1.47;1.40;;;8.40;97.30;;;;;;4960947;28;20438;-88
2023/04/25 06:51:10;;;;;;;5.30;2.30;;;8.50;97.30;;;;;;4966403;28;20237;-88
2023/04/25 06:53:36;;;;;;;2.87;2.70;;;8.50;97.30;;;;;;4958436;28;20617;-87
2023/04/25 06:56:02;;;;;;;2.03;1.47;;;8.50;97.30;;;;;;4952390;28;20191;-89
2023/04/25 06:58:28;;;;;;;4.40;2.57;;;8.50;97.30;;;;;;4959879;28;20423;-86
2023/04/25 07:00:53;;;;;;;2.57;2.37;;;8.60;97.30;;;;;;4955295;28;20489;-87
2023/04/25 07:03:19;;;;;;;3.03;2.40;;;8.60;97.30;;;;;;4956207;28;20620;-86
2023/04/25 07:05:45;;;;;;;5.57;2.70;;;8.60;97.30;;;;;;4953119;28;20187;-87
2023/04/25 07:08:11;;;;;;;3.93;2.20;;;8.60;97.30;;;;;;4953493;28;20273;-87
2023/04/25 07:10:36;;;;;;;1.57;1.47;;;8.60;97.30;;;;;;4963579;28;20880;-87
2023/04/25 07:13:02;;;;;;;1.67;1.63;;;8.60;97.30;;;;;;4959480;28;20187;-88
2023/04/25 07:15:27;;;;;;;2.50;2.30;;;8.60;97.30;;;;;;4960126;28;20268;-87
2023/04/25 07:17:53;;;;;;;1.70;1.60;;;8.60;97.30;;;;;;4959956;28;20762;-88
2023/04/25 07:20:18;;;;;;;1.93;1.57;;;8.60;97.30;;;;;;4967746;28;20194;-90
2023/04/25 07:22:44;;;;;;;2.07;1.93;;;8.60;97.30;;;;;;4961278;28;20215;-88
2023/04/25 07:25:15;;;;;;;3.00;2.03;;;8.60;97.30;;;;;;4958541;28;20183;-86
2023/04/25 07:27:41;;;;;;;5.90;3.33;;;8.60;97.30;;;;;;4956036;28;20193;-87
2023/04/25 07:30:07;;;;;;;2.43;1.80;;;8.60;97.30;;;;;;4955775;28;21053;-87
2023/04/25 07:32:35;;;;;;;1.73;1.63;;;8.60;97.30;;;;;;4952808;28;20747;-87
2023/04/25 07:35:01;;;;;;;1.73;1.60;;;8.60;97.30;;;;;;4956977;28;20422;-87
2023/04/25 07:37:27;;;;;;;4.80;3.27;;;8.60;97.30;;;;;;4957141;28;20437;-88
2023/04/25 07:39:52;;;;;;;2.33;2.10;;;8.60;97.30;;;;;;4952912;28;20427;-87
2023/04/25 07:42:18;;;;;;;3.63;2.67;;;8.50;97.30;;;;;;4961931;28;20226;-88
2023/04/25 07:44:43;;;;;;;5.73;2.63;;;8.50;97.30;;;;;;4959648;28;20282;-88
2023/04/25 07:47:10;;;;;;;8.60;2.70;;;8.50;97.30;;;;;;4960813;28;20183;-87
2023/04/25 07:49:36;;;;;;;3.17;2.50;;;8.50;97.30;;;;;;4956388;28;20194;-87
2023/04/25 07:52:03;;;;;;;3.00;2.40;;;8.50;97.30;;;;;;4960398;28;20859;-87
2023/04/25 07:54:29;;;;;;;1.80;1.70;;;8.40;97.30;;;;;;4980102;28;20430;-89
2023/04/25 07:56:55;;;;;;;12.80;2.50;;;8.40;97.30;;;;;;4975990;28;20462;-92
2023/04/25 07:59:21;;;;;;;23.67;2.57;;;8.40;97.30;;;;;;4962730;28;20454;-88
2023/04/25 08:01:47;;;;;;;1.37;1.27;;;8.40;97.30;;;;;;4959284;28;20460;-88
2023/04/25 08:04:12;;;;;;;3.63;1.40;;;8.40;97.30;;;;;;4953896;28;20441;-87
2023/04/25 08:06:38;;;;;;;7.30;2.17;;;8.40;97.30;;;;;;4956263;28;20293;-87
2023/04/25 08:09:04;;;;;;;1.00;0.90;;;;;;;;;;4955764;28;20191;-87
2023/04/25 08:11:30;;;;;;;2.03;1.37;;;8.50;97.30;;;;;;4954916;28;20711;-87
2023/04/25 08:13:55;;;;;;;1.30;1.20;;;8.60;97.00;;;;;;4958493;28;20429;-89
2023/04/25 08:16:21;;;;;;;2.43;1.67;;;8.60;95.80;;;;;;4952408;28;20294;-88
2023/04/25 08:18:47;;;;;;;1.87;1.63;;;8.70;95.70;;;;;;4962679;28;20197;-87
2023/04/25 08:21:13;;;;;;;1.93;1.40;;;8.80;95.60;;;;;;4952442;29;20533;-88
2023/04/25 08:23:38;;;;;;;2.13;1.67;;;8.80;95.40;;;;;;4963219;28;20269;-88
2023/04/25 08:26:05;;;;;;;23.17;4.07;;;8.80;94.80;;;;;;4959462;28;20427;-88
2023/04/25 08:28:31;;;;;;;1.97;1.87;;;8.90;94.90;;;;;;4965934;28;20181;-88
2023/04/25 08:30:56;;;;;;;1.27;1.17;;;8.90;94.70;;;;;;4945918;28;20906;-90
2023/04/25 08:33:22;;;;;;;1.43;1.33;;;8.90;95.00;;;;;;4950660;28;20416;-88
2023/04/25 08:35:48;;;;;;;3.23;1.63;;;8.90;94.60;;;;;;4949999;29;20190;-86
2023/04/25 08:38:13;;;;;;;1.53;1.43;;;8.90;95.10;;;;;;4951509;28;20332;-87
2023/04/25 08:40:40;;;;;;;6.73;1.73;;;8.90;95.50;;;;;;4957838;28;20652;-89
2023/04/25 08:43:11;;;;;;;1.83;1.70;;;9.00;95.40;;;;;;4960169;28;20317;-87
2023/04/25 08:45:41;;;;;;;1.40;1.30;;;9.00;95.90;;;;;;4952534;28;20631;-88
2023/04/25 08:48:10;;;;;;;2.00;1.83;;;9.00;96.30;;;;;;4956916;28;20423;-87
2023/04/25 08:50:47;;;;;;;1.53;1.43;;;9.00;95.20;;;;;;4947724;28;20418;-86
2023/04/25 08:53:18;;;;;;;1.10;1.00;;;9.00;95.20;;;;;;4961300;28;20505;-86
2023/04/25 08:55:45;;;;;;;7.83;1.40;;;9.00;95.20;;;;;;4954982;28;20426;-87
2023/04/25 08:58:12;;;;;;;2.30;2.10;;;9.00;95.00;;;;;;4944357;29;20438;-87
2023/04/25 09:00:41;;;;;;;1.20;1.20;;;9.00;94.70;;;;;;4950182;28;20510;-85
2023/04/25 09:03:10;;;;;;;1.50;1.40;;;9.00;95.40;;;;;;4951129;28;20415;-86
2023/04/25 09:05:40;;;;;;;1.67;1.57;;;9.00;94.50;;;;;;4956408;28;20431;-85
2023/04/25 09:08:11;;;;;;;1.20;1.10;;;9.10;95.00;;;;;;4962512;28;20482;-84
2023/04/25 09:10:42;;;;;;;1.83;1.30;;;9.10;95.10;;;;;;4955967;28;20513;-85
2023/04/25 09:13:20;;;;;;;0.93;0.87;;;9.20;95.40;;;;;;4962521;28;20521;-84
2023/04/25 09:16:14;;;;;;;1.00;0.90;;;9.30;95.40;;;;;;4957083;28;20426;-85
2023/04/25 09:18:40;;;;;;;1.47;1.40;;;9.40;94.10;;;;;;4946010;28;20450;-87
2023/04/25 09:21:10;;;;;;;7.50;2.40;;;9.50;93.80;;;;;;4951045;28;20533;-85
2023/04/25 09:23:47;;;;;;;2.30;1.13;;;9.40;92.30;;;;;;4953521;28;20187;-87
2023/04/25 09:26:17;;;;;;;1.33;1.23;;;9.40;92.60;;;;;;4958604;28;20784;-85
2023/04/25 09:28:43;;;;;;;2.70;1.20;;;9.50;92.40;;;;;;4955787;28;20427;-88
2023/04/25 09:31:11;;;;;;;1.43;1.27;;;9.60;91.40;;;;;;4954998;28;20473;-85
2023/04/25 09:33:40;;;;;;;1.97;1.40;;;9.60;92.10;;;;;;4953781;28;20187;-86
2023/04/25 09:36:13;;;;;;;1.30;1.20;;;9.70;91.40;;;;;;4957463;28;20426;-86
2023/04/25 09:39:14;;;;;;;1.53;1.40;;;9.70;92.10;;;;;;4948915;28;20951;-86
2023/04/25 09:42:02;;;;;;;1.20;1.17;;;9.80;91.90;;;;;;4961211;28;20473;-87
2023/04/25 09:44:31;;;;;;;1.00;0.90;;;9.70;91.30;;;;;;4968838;28;20462;-85
2023/04/25 09:47:20;;;;;;;1.97;1.43;;;9.60;91.90;;;;;;4966424;28;20438;-86
2023/04/25 09:49:53;;;;;;;1.77;1.67;;;9.60;91.70;;;;;;4964370;28;20930;-86
2023/04/25 09:52:23;;;;;;;1.20;1.10;;;9.50;92.40;;;;;;4968376;23;20498;-87
2023/04/25 09:54:52;;;;;;;2.87;1.67;;;9.50;93.70;;;;;;4959696;28;20428;-85
2023/04/25 09:57:31;;;;;;;1.37;1.27;;;9.50;92.70;;;;;;4965332;28;20447;-85
2023/04/25 10:00:21;;;;;;;1.90;1.80;;;9.50;93.60;;;;;;4968294;28;20420;-86
2023/04/25 10:03:29;;;;;;;2.50;1.40;;;9.40;93.90;;;;;;4962944;28;20449;-85
2023/04/25 10:06:28;;;;;;;1.77;1.67;;;9.30;94.00;;;;;;4950988;28;20418;-87
2023/04/25 10:08:54;;;;;;;12.73;2.60;;;9.30;94.20;;;;;;4954231;28;20416;-85
2023/04/25 10:11:22;;;;;;;3.17;2.07;;;9.20;94.20;;;;;;4984020;28;20544;-86
2023/04/25 10:13:52;;;;;;;5.17;2.80;;;9.10;94.50;;;;;;4979070;28;20433;-86
2023/04/25 10:16:20;;;;;;;6.10;2.33;;;9.00;94.90;;;;;;4964028;28;20421;-89
2023/04/25 10:18:48;;;;;;;2.00;1.90;;;9.00;94.50;;;;;;4947372;28;20418;-85
2023/04/25 10:21:15;;;;;;;4.37;1.80;;;9.20;94.50;;;;;;4963671;28;20473;-87
2023/04/25 10:23:41;;;;;;;1.37;1.30;;;9.30;94.40;;;;;;4958999;28;20471;-85
2023/04/25 10:26:12;;;;;;;3.37;1.20;;;9.50;94.40;;;;;;4960209;28;20426;-84
2023/04/25 10:29:00;;;;;;;1.47;1.37;;;9.60;94.10;;;;;;4962191;28;20448;-85
2023/04/25 10:31:27;;;;;;;6.73;2.13;;;9.70;93.80;;;;;;4956111;28;20473;-86
2023/04/25 10:33:53;;;;;;;1.23;1.13;;;9.80;93.70;;;;;;4953904;28;20435;-87
2023/04/25 10:36:21;;;;;;;8.17;2.23;;;9.90;92.60;;;;;;4962410;28;20423;-86
2023/04/25 10:38:48;;;;;;;2.33;2.17;;;10.00;92.90;;;;;;4959108;28;20425;-85
2023/04/25 10:41:18;;;;;;;1.97;1.87;;;10.00;92.10;;;;;;4972137;28;20509;-85
2023/04/25 10:43:49;;;;;;;7.13;3.20;;;10.00;92.50;;;;;;4967378;28;20557;-86
2023/04/25 10:46:25;;;;;;;1.73;1.63;;;9.90;92.20;;;;;;4968936;28;20457;-88
2023/04/25 10:48:53;;;;;;;8.30;3.83;;;9.80;91.80;;;;;;4985209;28;20476;-88
2023/04/25 10:51:20;;;;;;;2.47;2.07;;;9.80;92.30;;;;;;4963662;28;20511;-87
2023/04/25 10:54:07;;;;;;;3.93;2.50;;;9.80;92.10;;;;;;4977885;28;20774;-88
2023/04/25 10:56:37;;;;;;;2.40;2.20;;;9.80;92.00;;;;;;4989959;28;20416;-85
2023/04/25 10:59:13;;;;;;;5.87;3.70;;;9.70;92.30;;;;;;4991783;28;20420;-85
2023/04/25 11:01:46;;;;;;;2.80;1.90;;;9.70;92.30;;;;;;4976314;28;20440;-86
2023/04/25 11:04:45;;;;;;;1.57;1.47;;;9.80;92.70;;;;;;4989094;28;20917;-86
2023/04/25 11:07:20;;;;;;;4.20;1.20;;;9.80;92.30;;;;;;4930159;28;20413;-85
2023/04/25 11:09:46;;;;;;;2.13;1.97;;;9.70;92.50;;;;;;4990603;28;20428;-85
2023/04/25 11:12:12;;;;;;;2.23;1.67;;;9.60;91.90;;;;;;4982154;28;20604;-85
2023/04/25 11:14:38;;;;;;;4.20;2.60;;;9.50;91.90;;;;;;4975816;28;20205;-85
2023/04/25 11:17:03;;;;;;;2.43;2.23;;;9.30;91.60;;;;;;4981585;28;20441;-87
2023/04/25 11:19:29;;;;;;;5.60;3.53;;;9.10;91.80;;;;;;5008548;28;20180;-86
2023/04/25 11:21:56;;;;;;;4.60;2.70;;;9.00;92.20;;;;;;4991376;28;20678;-85
2023/04/25 11:24:29;;;;;;;2.53;2.13;;;9.00;92.80;;;;;;4991075;28;20428;-86
2023/04/25 11:26:56;;;;;;;2.20;1.97;;;8.90;92.90;;;;;;4991387;28;20943;-86
2023/04/25 11:29:29;;;;;;;4.23;2.10;;;8.90;93.40;;;;;;5006132;28;20416;-87
2023/04/25 11:31:57;;;;;;;3.83;2.33;;;8.90;93.40;;;;;;4979214;28;20899;-84
2023/04/25 11:34:27;;;;;;;2.63;1.43;;;8.90;92.70;;;;;;4976767;28;20939;-85
2023/04/25 11:36:53;;;;;;;1.87;1.77;;;9.00;92.70;;;;;;4991892;28;20800;-84
2023/04/25 11:39:19;;;;;;;4.60;2.63;;;9.10;92.60;;;;;;4982877;28;20412;-85
2023/04/25 11:41:45;;;;;;;2.10;1.60;;;9.10;91.80;;;;;;4974881;28;20437;-86
2023/04/25 11:44:10;;;;;;;1.80;1.70;;;9.10;91.70;;;;;;4974704;28;20432;-85
2023/04/25 11:46:38;;;;;;;2.57;2.37;;;9.20;91.30;;;;;;4974755;28;20285;-86
2023/04/25 11:49:04;;;;;;;2.47;1.70;;;9.30;91.60;;;;;;4991399;28;20186;-84
2023/04/25 11:51:31;;;;;;;29.13;2.27;;;9.40;90.50;;;;;;4981645;28;20483;-84
2023/04/25 11:53:57;;;;;;;1.17;1.07;;;9.40;90.50;;;;;;4999084;28;20670;-83
2023/04/25 11:56:22;;;;;;;1.20;1.10;;;9.50;90.40;;;;;;4964473;28;20437;-84
2023/04/25 11:59:00;;;;;;;1.30;1.20;;;9.50;90.10;;;;;;4990321;28;21214;-85
2023/04/25 12:01:33;;;;;;;2.50;1.63;;;9.50;89.80;;;;;;4977925;28;20690;-84
2023/04/25 12:04:18;;;;;;;2.30;2.17;;;9.50;90.20;;;;;;4981863;28;20417;-85
2023/04/25 12:06:48;;;;;;;1.77;1.67;;;9.50;90.00;;;;;;4977169;28;20424;-84
2023/04/25 12:09:15;;;;;;;2.90;1.97;;;9.60;90.20;;;;;;4972024;28;20693;-82
2023/04/25 12:11:42;;;;;;;2.70;1.70;;;9.60;90.50;;;;;;4977403;28;20472;-84
2023/04/25 12:14:08;;;;;;;3.93;2.03;;;9.70;89.60;;;;;;4974599;28;20455;-84
2023/04/25 12:16:44;;;;;;;1.20;1.10;;;9.80;89.70;;;;;;4990840;28;20441;-84
2023/04/25 12:19:14;;;;;;;4.53;3.73;;;10.00;88.30;;;;;;4969726;28;20413;-85
2023/04/25 12:21:39;;;;;;;2.73;2.53;;;10.10;87.20;;;;;;4986084;28;20593;-85
2023/04/25 12:24:18;;;;;;;7.30;1.63;;;10.50;86.60;;;;;;4993543;28;20469;-84
2023/04/25 12:26:49;;;;;;;3.27;2.07;;;10.70;85.20;;;;;;4992800;28;20181;-84
2023/04/25 12:29:17;;;;;;;1.80;1.73;;;10.80;86.40;;;;;;4996923;28;20535;-84
2023/04/25 12:31:42;;;;;;;1.43;1.33;;;10.70;83.20;;;;;;4984268;28;20547;-84
2023/04/25 12:34:08;;;;;;;1.30;1.20;;;10.50;84.00;;;;;;4985443;28;20461;-84
2023/04/25 12:36:33;;;;;;;4.00;1.57;;;10.30;85.10;;;;;;4976060;28;20305;-84
2023/04/25 12:39:03;;;;;;;2.67;2.30;;;10.10;85.80;;;;;;4989887;28;20184;-85
2023/04/25 12:41:29;;;;;;;1.33;1.30;;;10.00;86.30;;;;;;4984267;28;20267;-84
2023/04/25 12:43:56;;;;;;;1.17;1.07;;;;;;;;;;4999842;28;20992;-85
2023/04/25 12:46:22;;;;;;;1.53;1.47;;;9.70;85.80;;;;;;4991444;28;20883;-85
2023/04/25 12:48:48;;;;;;;1.33;1.23;;;9.70;86.40;;;;;;4998158;28;20427;-84
2023/04/25 12:51:14;;;;;;;3.27;2.90;;;9.70;86.90;;;;;;4967408;28;21031;-85
2023/04/25 12:53:40;;;;;;;1.47;1.10;;;9.90;87.70;;;;;;4971784;28;20253;-84
2023/04/25 12:56:07;;;;;;;1.43;1.33;;;10.00;86.20;;;;;;4980228;28;20208;-84
2023/04/25 12:58:33;;;;;;;2.30;1.10;;;10.10;85.70;;;;;;4985299;28;20420;-84
2023/04/25 13:00:59;;;;;;;1.10;1.00;;;10.10;83.80;;;;;;4976866;28;20980;-86